sensor_id;sensor_type;location;lat;lon;timestamp;pressure;altitude;pressure_sealevel;temperature;humidity
24752;BME280;27246;52.376;4.628;2022-10-04T00:04:00;102178.66;;;12.82;88.00
24752;BME280;27246;52.376;4.628;2022-10-04T00:09:07;102172.78;;;12.85;88.05
24752;BME280;27246;52.376;4.628;2022-10-04T00:14:26;102177.59;;;12.83;87.41
24752;BME280;27246;52.376;4.628;2022-10-04T00:19:43;102181.97;;;12.86;88.14
24752;BME280;27246;52.376;4.628;2022-10-04T00:25:21;102163.78;;;12.83;87.69
24752;BME280;27246;52.376;4.628;2022-10-04T00:30:36;102158.09;;;12.85;88.19
24752;BME280;27246;52.376;4.628;2022-10-04T00:41:00;102140.47;;;12.86;87.96
24752;BME280;27246;52.376;4.628;2022-10-04T00:46:06;102138.91;;;12.83;88.36
24752;BME280;27246;52.376;4.628;2022-10-04T00:51:21;102135.78;;;12.78;88.48
24752;BME280;27246;52.376;4.628;2022-10-04T00:56:33;102133.84;;;12.70;88.48
24752;BME280;27246;52.376;4.628;2022-10-04T01:01:37;102134.38;;;12.66;89.58
24752;BME280;27246;52.376;4.628;2022-10-04T01:06:40;102136.78;;;12.69;89.53
24752;BME280;27246;52.376;4.628;2022-10-04T01:11:46;102125.53;;;12.62;89.35
24752;BME280;27246;52.376;4.628;2022-10-04T01:16:53;102118.59;;;12.58;89.78
24752;BME280;27246;52.376;4.628;2022-10-04T01:32:36;102108.75;;;12.55;90.41
24752;BME280;27246;52.376;4.628;2022-10-04T01:37:38;102100.44;;;12.47;90.31
24752;BME280;27246;52.376;4.628;2022-10-04T01:42:49;102087.09;;;12.43;90.29
24752;BME280;27246;52.376;4.628;2022-10-04T01:47:56;102061.19;;;12.35;90.43
24752;BME280;27246;52.376;4.628;2022-10-04T01:58:13;102032.22;;;12.13;91.54
24752;BME280;27246;52.376;4.628;2022-10-04T02:03:21;102023.53;;;12.08;92.13
24752;BME280;27246;52.376;4.628;2022-10-04T02:08:30;102011.63;;;12.08;92.44
24752;BME280;27246;52.376;4.628;2022-10-04T02:13:36;102011.56;;;11.91;92.53
24752;BME280;27246;52.376;4.628;2022-10-04T02:18:39;102014.84;;;11.87;93.50
24752;BME280;27246;52.376;4.628;2022-10-04T02:23:44;101998.59;;;11.84;92.86
24752;BME280;27246;52.376;4.628;2022-10-04T02:28:47;101997.69;;;11.75;93.59
24752;BME280;27246;52.376;4.628;2022-10-04T02:33:51;101991.13;;;11.76;93.56
24752;BME280;27246;52.376;4.628;2022-10-04T02:39:39;101988.19;;;11.77;93.48
24752;BME280;27246;52.376;4.628;2022-10-04T02:44:50;101974.66;;;11.66;93.61
24752;BME280;27246;52.376;4.628;2022-10-04T02:50:04;101963.28;;;11.61;93.81
24752;BME280;27246;52.376;4.628;2022-10-04T03:11:04;101960.63;;;11.51;93.85
24752;BME280;27246;52.376;4.628;2022-10-04T03:16:06;101946.94;;;11.41;93.55
24752;BME280;27246;52.376;4.628;2022-10-04T03:21:11;101947.50;;;11.45;92.97
24752;BME280;27246;52.376;4.628;2022-10-04T03:26:16;101933.09;;;11.33;93.04
24752;BME280;27246;52.376;4.628;2022-10-04T03:31:22;101923.78;;;11.26;93.89
24752;BME280;27246;52.376;4.628;2022-10-04T03:36:24;101928.19;;;11.19;94.31
24752;BME280;27246;52.376;4.628;2022-10-04T03:41:27;101928.59;;;11.24;94.08
24752;BME280;27246;52.376;4.628;2022-10-04T03:46:29;101923.78;;;11.26;94.21
24752;BME280;27246;52.376;4.628;2022-10-04T03:51:31;101917.72;;;11.23;93.95
24752;BME280;27246;52.376;4.628;2022-10-04T03:56:35;101920.16;;;11.08;94.17
24752;BME280;27246;52.376;4.628;2022-10-04T04:01:49;101917.22;;;11.01;94.54
24752;BME280;27246;52.376;4.628;2022-10-04T04:07:28;101914.44;;;11.01;95.10
24752;BME280;27246;52.376;4.628;2022-10-04T04:12:38;101925.47;;;11.01;95.02
24752;BME280;27246;52.376;4.628;2022-10-04T04:17:51;101919.03;;;10.92;95.02
24752;BME280;27246;52.376;4.628;2022-10-04T04:22:58;101909.22;;;10.90;95.03
24752;BME280;27246;52.376;4.628;2022-10-04T04:28:11;101913.09;;;10.87;95.03
24752;BME280;27246;52.376;4.628;2022-10-04T04:33:23;101905.25;;;10.92;94.81
24752;BME280;27246;52.376;4.628;2022-10-04T04:38:27;101904.72;;;10.89;94.55
24752;BME280;27246;52.376;4.628;2022-10-04T04:43:28;101915.50;;;10.82;94.93
24752;BME280;27246;52.376;4.628;2022-10-04T04:48:31;101911.69;;;10.83;94.72
24752;BME280;27246;52.376;4.628;2022-10-04T04:53:33;101904.56;;;10.72;95.15
24752;BME280;27246;52.376;4.628;2022-10-04T04:58:38;101906.75;;;10.69;95.71
24752;BME280;27246;52.376;4.628;2022-10-04T05:03:42;101896.38;;;10.63;95.97
24752;BME280;27246;52.376;4.628;2022-10-04T05:08:48;101902.94;;;10.61;96.21
24752;BME280;27246;52.376;4.628;2022-10-04T05:13:55;101887.25;;;10.62;96.45
24752;BME280;27246;52.376;4.628;2022-10-04T05:19:00;101874.97;;;10.56;96.46
24752;BME280;27246;52.376;4.628;2022-10-04T05:24:11;101882.03;;;10.59;96.45
24752;BME280;27246;52.376;4.628;2022-10-04T05:29:17;101890.81;;;10.54;96.34
24752;BME280;27246;52.376;4.628;2022-10-04T05:34:23;101882.16;;;10.49;96.73
24752;BME280;27246;52.376;4.628;2022-10-04T05:39:30;101862.63;;;10.43;96.19
24752;BME280;27246;52.376;4.628;2022-10-04T05:44:51;101857.53;;;10.48;96.37
24752;BME280;27246;52.376;4.628;2022-10-04T05:49:55;101863.81;;;10.40;95.87
24752;BME280;27246;52.376;4.628;2022-10-04T06:00:34;101860.59;;;10.27;96.12
24752;BME280;27246;52.376;4.628;2022-10-04T06:05:46;101859.03;;;10.24;96.81
24752;BME280;27246;52.376;4.628;2022-10-04T06:16:21;101863.81;;;10.22;96.82
24752;BME280;27246;52.376;4.628;2022-10-04T06:21:29;101856.84;;;10.28;96.76
24752;BME280;27246;52.376;4.628;2022-10-04T06:26:44;101853.03;;;10.29;96.28
24752;BME280;27246;52.376;4.628;2022-10-04T06:37:27;101861.63;;;10.26;96.66
24752;BME280;27246;52.376;4.628;2022-10-04T06:42:46;101852.97;;;10.20;97.16
24752;BME280;27246;52.376;4.628;2022-10-04T07:09:02;101862.97;;;10.84;96.11
24752;BME280;27246;52.376;4.628;2022-10-04T07:14:15;101863.97;;;10.82;95.76
24752;BME280;27246;52.376;4.628;2022-10-04T07:30:05;101861.00;;;10.76;95.79
24752;BME280;27246;52.376;4.628;2022-10-04T07:41:18;101863.06;;;10.92;96.04
24752;BME280;27246;52.376;4.628;2022-10-04T07:45:47;101861.69;;;10.96;96.60
24752;BME280;27246;52.376;4.628;2022-10-04T08:01:37;101871.13;;;11.19;96.58
24752;BME280;27246;52.376;4.628;2022-10-04T08:07:01;101870.97;;;11.21;96.06
24752;BME280;27246;52.376;4.628;2022-10-04T08:12:24;101864.47;;;11.30;96.38
24752;BME280;27246;52.376;4.628;2022-10-04T08:17:37;101863.03;;;11.52;96.21
24752;BME280;27246;52.376;4.628;2022-10-04T08:23:13;101850.06;;;11.95;93.65
24752;BME280;27246;52.376;4.628;2022-10-04T09:01:10;101858.41;;;13.89;84.21
24752;BME280;27246;52.376;4.628;2022-10-04T09:16:45;101845.50;;;14.28;82.14
24752;BME280;27246;52.376;4.628;2022-10-04T09:22:08;101838.91;;;14.29;83.19
24752;BME280;27246;52.376;4.628;2022-10-04T09:44:55;101824.66;;;15.37;76.24
24752;BME280;27246;52.376;4.628;2022-10-04T10:11:47;101830.47;;;15.57;74.17
24752;BME280;27246;52.376;4.628;2022-10-04T10:17:18;101834.41;;;15.63;74.68
24752;BME280;27246;52.376;4.628;2022-10-04T10:28:18;101813.34;;;15.54;74.24
24752;BME280;27246;52.376;4.628;2022-10-04T10:39:08;101811.66;;;15.23;75.58
24752;BME280;27246;52.376;4.628;2022-10-04T10:45:06;101811.84;;;15.36;76.75
24752;BME280;27246;52.376;4.628;2022-10-04T11:21:33;101790.41;;;15.82;68.05
24752;BME280;27246;52.376;4.628;2022-10-04T11:48:36;101779.06;;;16.41;65.83
24752;BME280;27246;52.376;4.628;2022-10-04T12:09:31;101744.03;;;17.10;61.69
24752;BME280;27246;52.376;4.628;2022-10-04T12:14:49;101740.69;;;17.34;60.89
24752;BME280;27246;52.376;4.628;2022-10-04T12:31:19;101712.31;;;17.72;58.31
24752;BME280;27246;52.376;4.628;2022-10-04T12:36:41;101710.34;;;17.59;59.28
24752;BME280;27246;52.376;4.628;2022-10-04T12:53:13;101697.00;;;17.42;62.09
24752;BME280;27246;52.376;4.628;2022-10-04T12:58:20;101694.28;;;17.62;60.98
24752;BME280;27246;52.376;4.628;2022-10-04T13:30:21;101633.81;;;17.49;63.42
24752;BME280;27246;52.376;4.628;2022-10-04T13:35:48;101636.16;;;17.38;63.44
24752;BME280;27246;52.376;4.628;2022-10-04T13:52:13;101620.94;;;17.41;64.10
24752;BME280;27246;52.376;4.628;2022-10-04T14:13:44;101632.00;;;17.08;67.80
24752;BME280;27246;52.376;4.628;2022-10-04T14:24:29;101628.59;;;17.06;70.06
24752;BME280;27246;52.376;4.628;2022-10-04T14:35:32;101649.09;;;16.98;70.60
24752;BME280;27246;52.376;4.628;2022-10-04T14:41:34;101633.63;;;16.89;71.71
24752;BME280;27246;52.376;4.628;2022-10-04T15:07:22;101634.97;;;16.65;73.82
24752;BME280;27246;52.376;4.628;2022-10-04T15:23:33;101630.25;;;16.58;74.33
24752;BME280;27246;52.376;4.628;2022-10-04T16:01:58;101621.03;;;16.51;76.12
24752;BME280;27246;52.376;4.628;2022-10-04T16:07:07;101621.59;;;16.40;76.71
24752;BME280;27246;52.376;4.628;2022-10-04T16:12:24;101619.81;;;16.32;76.53
24752;BME280;27246;52.376;4.628;2022-10-04T16:17:46;101617.69;;;16.34;76.99
24752;BME280;27246;52.376;4.628;2022-10-04T16:28:35;101607.59;;;16.27;78.04
24752;BME280;27246;52.376;4.628;2022-10-04T16:38:58;101620.34;;;16.14;79.01
24752;BME280;27246;52.376;4.628;2022-10-04T16:44:37;101632.53;;;16.13;79.37
24752;BME280;27246;52.376;4.628;2022-10-04T16:49:51;101629.56;;;16.15;79.65
24752;BME280;27246;52.376;4.628;2022-10-04T16:55:20;101622.91;;;16.16;79.78
24752;BME280;27246;52.376;4.628;2022-10-04T17:00:34;101629.09;;;16.11;79.88
24752;BME280;27246;52.376;4.628;2022-10-04T17:06:00;101606.00;;;16.11;80.14
24752;BME280;27246;52.376;4.628;2022-10-04T17:11:27;101625.59;;;16.03;79.57
24752;BME280;27246;52.376;4.628;2022-10-04T17:16:36;101621.16;;;16.08;79.42
24752;BME280;27246;52.376;4.628;2022-10-04T17:21:58;101624.59;;;16.10;79.92
24752;BME280;27246;52.376;4.628;2022-10-04T17:38:06;101627.28;;;15.97;81.62
24752;BME280;27246;52.376;4.628;2022-10-04T17:43:26;101628.13;;;15.97;81.19
24752;BME280;27246;52.376;4.628;2022-10-04T17:49:01;101621.06;;;15.95;80.47
24752;BME280;27246;52.376;4.628;2022-10-04T17:54:27;101618.03;;;15.90;79.95
24752;BME280;27246;52.376;4.628;2022-10-04T18:00:12;101610.53;;;15.90;79.70
24752;BME280;27246;52.376;4.628;2022-10-04T18:05:20;101626.34;;;15.90;79.73
24752;BME280;27246;52.376;4.628;2022-10-04T18:10:34;101634.03;;;15.88;80.29
24752;BME280;27246;52.376;4.628;2022-10-04T18:15:47;101627.81;;;15.86;80.89
24752;BME280;27246;52.376;4.628;2022-10-04T18:21:03;101614.59;;;15.88;81.54
24752;BME280;27246;52.376;4.628;2022-10-04T18:26:13;101613.25;;;15.84;82.32
24752;BME280;27246;52.376;4.628;2022-10-04T18:31:22;101597.88;;;15.81;82.72
24752;BME280;27246;52.376;4.628;2022-10-04T18:36:29;101595.56;;;15.85;83.19
24752;BME280;27246;52.376;4.628;2022-10-04T18:41:54;101571.06;;;15.73;83.76
24752;BME280;27246;52.376;4.628;2022-10-04T18:47:00;101556.13;;;15.74;84.07
24752;BME280;27246;52.376;4.628;2022-10-04T18:57:31;101554.13;;;15.68;82.31
24752;BME280;27246;52.376;4.628;2022-10-04T19:02:40;101540.69;;;15.72;82.26
24752;BME280;27246;52.376;4.628;2022-10-04T19:18:33;101538.91;;;15.64;82.31
24752;BME280;27246;52.376;4.628;2022-10-04T19:40:24;101539.88;;;15.50;82.72
24752;BME280;27246;52.376;4.628;2022-10-04T19:45:45;101557.84;;;15.54;82.66
24752;BME280;27246;52.376;4.628;2022-10-04T19:50:52;101556.63;;;15.56;82.45
24752;BME280;27246;52.376;4.628;2022-10-04T19:55:58;101554.22;;;15.53;82.67
24752;BME280;27246;52.376;4.628;2022-10-04T20:01:00;101558.28;;;15.51;82.88
24752;BME280;27246;52.376;4.628;2022-10-04T20:06:01;101565.94;;;15.49;82.84
24752;BME280;27246;52.376;4.628;2022-10-04T20:11:28;101563.34;;;15.47;82.55
24752;BME280;27246;52.376;4.628;2022-10-04T20:21:55;101569.31;;;15.44;81.44
24752;BME280;27246;52.376;4.628;2022-10-04T20:27:00;101565.00;;;15.42;80.78
24752;BME280;27246;52.376;4.628;2022-10-04T20:32:09;101578.22;;;15.39;80.38
24752;BME280;27246;52.376;4.628;2022-10-04T20:37:11;101573.75;;;15.38;79.95
24752;BME280;27246;52.376;4.628;2022-10-04T20:47:48;101570.09;;;15.38;79.56
24752;BME280;27246;52.376;4.628;2022-10-04T20:52:53;101572.63;;;15.33;79.58
24752;BME280;27246;52.376;4.628;2022-10-04T21:03:23;101563.16;;;15.27;79.62
24752;BME280;27246;52.376;4.628;2022-10-04T21:08:25;101552.47;;;15.24;79.74
24752;BME280;27246;52.376;4.628;2022-10-04T21:13:42;101567.00;;;15.26;79.95
24752;BME280;27246;52.376;4.628;2022-10-04T21:18:47;101558.88;;;15.25;79.73
24752;BME280;27246;52.376;4.628;2022-10-04T21:23:49;101558.22;;;15.23;79.81
24752;BME280;27246;52.376;4.628;2022-10-04T21:28:55;101552.84;;;15.21;79.87
24752;BME280;27246;52.376;4.628;2022-10-04T21:34:02;101543.94;;;15.26;79.62
24752;BME280;27246;52.376;4.628;2022-10-04T21:39:03;101539.16;;;15.19;79.48
24752;BME280;27246;52.376;4.628;2022-10-04T21:44:05;101540.44;;;15.17;79.46
24752;BME280;27246;52.376;4.628;2022-10-04T21:49:07;101529.75;;;15.14;79.29
24752;BME280;27246;52.376;4.628;2022-10-04T21:54:08;101528.88;;;15.13;78.96
24752;BME280;27246;52.376;4.628;2022-10-04T21:59:10;101531.44;;;15.15;79.13
24752;BME280;27246;52.376;4.628;2022-10-04T22:04:12;101532.72;;;15.12;79.20
24752;BME280;27246;52.376;4.628;2022-10-04T22:09:14;101521.63;;;15.12;79.27
24752;BME280;27246;52.376;4.628;2022-10-04T22:14:15;101511.78;;;15.10;79.15
24752;BME280;27246;52.376;4.628;2022-10-04T22:19:17;101513.84;;;15.08;79.06
24752;BME280;27246;52.376;4.628;2022-10-04T22:24:21;101509.84;;;15.10;79.01
24752;BME280;27246;52.376;4.628;2022-10-04T22:29:23;101519.41;;;15.08;79.02
24752;BME280;27246;52.376;4.628;2022-10-04T22:34:26;101521.34;;;15.07;79.26
24752;BME280;27246;52.376;4.628;2022-10-04T22:39:31;101513.81;;;15.01;79.67
24752;BME280;27246;52.376;4.628;2022-10-04T22:44:37;101523.44;;;15.05;79.64
24752;BME280;27246;52.376;4.628;2022-10-04T22:49:44;101522.13;;;15.01;80.31
24752;BME280;27246;52.376;4.628;2022-10-04T22:54:55;101518.09;;;15.04;80.74
24752;BME280;27246;52.376;4.628;2022-10-04T22:59:58;101518.31;;;15.02;81.23
24752;BME280;27246;52.376;4.628;2022-10-04T23:05:16;101510.38;;;14.99;81.76
24752;BME280;27246;52.376;4.628;2022-10-04T23:10:18;101508.91;;;15.03;82.04
24752;BME280;27246;52.376;4.628;2022-10-04T23:15:20;101504.81;;;14.99;81.69
24752;BME280;27246;52.376;4.628;2022-10-04T23:20:22;101507.78;;;14.97;82.27
24752;BME280;27246;52.376;4.628;2022-10-04T23:25:27;101501.78;;;14.94;82.66
24752;BME280;27246;52.376;4.628;2022-10-04T23:30:29;101480.84;;;14.91;82.84
24752;BME280;27246;52.376;4.628;2022-10-04T23:35:32;101487.47;;;14.90;83.51
24752;BME280;27246;52.376;4.628;2022-10-04T23:40:34;101485.53;;;14.91;83.58
24752;BME280;27246;52.376;4.628;2022-10-04T23:45:36;101489.38;;;14.90;83.77
24752;BME280;27246;52.376;4.628;2022-10-04T23:50:48;101482.09;;;14.89;83.88
24752;BME280;27246;52.376;4.628;2022-10-04T23:55:54;101483.59;;;14.91;83.89
